Capo Vado — IPWV — position and weather

sailwx.info

Track history (hours):
 
Tides and Currents Weather Stations Pressure Air Temp Water Temp Dewpoint Dewpoint Depression Visibility Wind Speed Wind Dir Waves Ship Positions

Capo Vado

Last reported at 2014-Nov-22 16:06 UTC. Time now 2014-Nov-22 16:40 UTC.
Position N 44°18' E 008°29'.

Length 30 m.

Type: Tug. MMSI: 247228400.

Date/timePositionNaut miles runAvg speedWind from/ knotsBaromVisibWave heightAir tempDewpointWater temp
2014-Nov-22 16:06N 44°18' E 008°29'0 0.0
2014-Nov-22 15:30N 44°18' E 008°29'0 0.0
2014-Nov-22 14:30N 44°18' E 008°29'0 0.0
2014-Nov-22 11:32N 44°18' E 008°29'1 0.6
2014-Nov-22 10:33N 44°18' E 008°30'3 2.5
2014-Nov-22 09:11N 44°16' E 008°27'1 1.0
2014-Nov-22 08:28N 44°16' E 008°28'2 2.5
2014-Nov-22 07:31N 44°18' E 008°29'0 0.0
2014-Nov-22 06:28N 44°18' E 008°29'0 0.0
2014-Nov-22 04:04N 44°18' E 008°29'0 0.0
2014-Nov-22 03:28N 44°18' E 008°29'0 0.0
2014-Nov-22 02:28N 44°18' E 008°29'0 0.0
2014-Nov-22 01:13N 44°18' E 008°29'0 0.0
2014-Nov-22 00:31N 44°18' E 008°29'0 0.0
2014-Nov-21 23:19N 44°18' E 008°29'0 0.0
2014-Nov-21 19:22N 44°18' E 008°29'0 0.0
2014-Nov-21 16:14N 44°19' E 008°29'3 3.7
2014-Nov-21 15:22N 44°16' E 008°27'0 0.0
2014-Nov-21 11:13N 44°16' E 008°27'0 0.0
2014-Nov-21 10:13N 44°16' E 008°27'0 0.0
2014-Nov-21 08:04N 44°16' E 008°27'1 0.6
2014-Nov-21 07:08N 44°16' E 008°27'3 3.0
2014-Nov-21 06:08N 44°18' E 008°30'1 1.1
2014-Nov-21 05:31N 44°19' E 008°30'1 0.3
2014-Nov-21 03:12N 44°18' E 008°29'0 0.0
2014-Nov-21 02:24N 44°18' E 008°29'0 0.0
2014-Nov-21 01:24N 44°18' E 008°29'0 0.0
2014-Nov-21 00:30N 44°18' E 008°29'0 0.0
2014-Nov-20 19:24N 44°18' E 008°29'0 0.0
2014-Nov-20 15:30N 44°18' E 008°29'0 0.0
2014-Nov-20 11:30N 44°18' E 008°29'0 0.0
2014-Nov-20 07:30N 44°18' E 008°29'0 0.0
2014-Nov-20 03:33N 44°18' E 008°29'0 0.0
2014-Nov-20 02:30N 44°18' E 008°29'0 0.0
2014-Nov-20 01:24N 44°18' E 008°29'0 0.0
2014-Nov-20 00:27N 44°18' E 008°29'0 0.0
2014-Nov-19 23:33N 44°18' E 008°29'0 0.0
2014-Nov-19 20:06N 44°18' E 008°29'0 0.0
2014-Nov-19 19:30N 44°18' E 008°29'0 0.0
2014-Nov-19 15:33N 44°18' E 008°29'0 0.0
2014-Nov-19 14:30N 44°18' E 008°29'0 0.0
2014-Nov-19 11:18N 44°18' E 008°29'0 0.0
2014-Nov-19 08:06N 44°18' E 008°29'0 0.0
2014-Nov-19 07:33N 44°18' E 008°29'0 0.0
2014-Nov-19 04:18N 44°18' E 008°29'0 0.0
2014-Nov-19 03:33N 44°18' E 008°29'0 0.0
2014-Nov-19 02:33N 44°18' E 008°29'0 0.0
2014-Nov-19 01:33N 44°18' E 008°29'0 0.0
2014-Nov-19 00:27N 44°18' E 008°29'0 0.0
2014-Nov-18 23:30N 44°18' E 008°29'0 0.0
2014-Nov-18 19:33N 44°18' E 008°29'0 0.0
2014-Nov-18 16:18N 44°18' E 008°29'0 0.0
2014-Nov-18 15:30N 44°18' E 008°29'0 0.0
2014-Nov-18 03:30N 44°18' E 008°29'0 0.0
2014-Nov-18 02:30N 44°18' E 008°29'0 0.0
2014-Nov-18 01:30N 44°18' E 008°29'0 0.0
2014-Nov-18 00:30N 44°18' E 008°29'0 0.0
2014-Nov-17 23:30N 44°18' E 008°29'0 0.0
2014-Nov-17 15:27N 44°18' E 008°29'0 0.0
2014-Nov-17 11:21N 44°18' E 008°29'1 0.3
2014-Nov-17 08:29N 44°19' E 008°30'1 0.8
2014-Nov-17 07:31N 44°18' E 008°29'1 0.4
2014-Nov-17 05:18N 44°19' E 008°30'1 0.9
2014-Nov-17 04:24N 44°18' E 008°29'0 0.0
2014-Nov-17 03:33N 44°18' E 008°29'0 0.0
2014-Nov-17 02:30N 44°18' E 008°29'0 0.0
2014-Nov-17 01:30N 44°18' E 008°29'0 0.0
2014-Nov-17 00:27N 44°18' E 008°29'0 0.0
2014-Nov-16 10:21N 44°18' E 008°29'0 0.0
2014-Nov-16 09:33N 44°18' E 008°29'0 0.0
2014-Nov-16 08:18N 44°18' E 008°29'0 0.0
2014-Nov-16 03:33N 44°18' E 008°29'0 0.0
2014-Nov-16 02:33N 44°18' E 008°29'0 0.0
2014-Nov-16 01:15N 44°18' E 008°29'0 0.0
2014-Nov-15 19:27N 44°18' E 008°29'0 0.0
2014-Nov-15 15:30N 44°18' E 008°29'0 0.0
2014-Nov-15 11:27N 44°18' E 008°29'0 0.0
2014-Nov-15 07:12N 44°18' E 008°29'0 0.0
2014-Nov-15 03:33N 44°18' E 008°29'0 0.0
2014-Nov-15 02:33N 44°18' E 008°29'0 0.0
2014-Nov-15 00:30N 44°18' E 008°29'0 0.0
2014-Nov-14 15:30N 44°18' E 008°29'0 0.0
2014-Nov-14 11:24N 44°18' E 008°29'0 0.0
2014-Nov-14 08:06N 44°18' E 008°29'0 0.0
2014-Nov-14 07:30N 44°18' E 008°29'1 0.4
2014-Nov-14 05:26N 44°19' E 008°30'1 0.6
2014-Nov-14 04:05N 44°18' E 008°29'0 0.0
2014-Nov-14 03:26N 44°18' E 008°29'0 0.0
2014-Nov-14 02:20N 44°18' E 008°29'0 0.0
2014-Nov-14 01:26N 44°18' E 008°29'0 0.0
2014-Nov-14 00:32N 44°18' E 008°29'0 0.0
2014-Nov-13 23:26N 44°18' E 008°29'0 0.0
2014-Nov-13 19:32N 44°18' E 008°29'0 0.0
2014-Nov-13 03:29N 44°18' E 008°29'0 0.0
2014-Nov-13 02:26N 44°18' E 008°29'0 0.0
2014-Nov-13 01:29N 44°18' E 008°29'0 0.0
2014-Nov-13 00:26N 44°18' E 008°29'0 0.0
2014-Nov-12 19:32N 44°18' E 008°29'0 0.0
2014-Nov-12 18:32N 44°18' E 008°29'  
Track history (hours):
 
Tides and Currents Weather Stations Pressure Air Temp Water Temp Dewpoint Dewpoint Depression Visibility Wind Speed Wind Dir Waves Ship Positions

Capo Vado

Last reported at 2014-Nov-22 16:06 UTC. Time now 2014-Nov-22 16:40 UTC.
Position N 44°18' E 008°29'.

Length 30 m.

Type: Tug. MMSI: 247228400.

Date/timePositionNaut miles runAvg speedWind from/ knotsBaromVisibWave heightAir tempDewpointWater temp
2014-Nov-22 16:06N 44°18' E 008°29'0 0.0
2014-Nov-22 15:30N 44°18' E 008°29'0 0.0
2014-Nov-22 14:30N 44°18' E 008°29'0 0.0
2014-Nov-22 11:32N 44°18' E 008°29'1 0.6
2014-Nov-22 10:33N 44°18' E 008°30'3 2.5
2014-Nov-22 09:11N 44°16' E 008°27'1 1.0
2014-Nov-22 08:28N 44°16' E 008°28'2 2.5
2014-Nov-22 07:31N 44°18' E 008°29'0 0.0
2014-Nov-22 06:28N 44°18' E 008°29'0 0.0
2014-Nov-22 04:04N 44°18' E 008°29'0 0.0
2014-Nov-22 03:28N 44°18' E 008°29'0 0.0
2014-Nov-22 02:28N 44°18' E 008°29'0 0.0
2014-Nov-22 01:13N 44°18' E 008°29'0 0.0
2014-Nov-22 00:31N 44°18' E 008°29'0 0.0
2014-Nov-21 23:19N 44°18' E 008°29'0 0.0
2014-Nov-21 19:22N 44°18' E 008°29'0 0.0
2014-Nov-21 16:14N 44°19' E 008°29'3 3.7
2014-Nov-21 15:22N 44°16' E 008°27'0 0.0
2014-Nov-21 11:13N 44°16' E 008°27'0 0.0
2014-Nov-21 10:13N 44°16' E 008°27'0 0.0
2014-Nov-21 08:04N 44°16' E 008°27'1 0.6
2014-Nov-21 07:08N 44°16' E 008°27'3 3.0
2014-Nov-21 06:08N 44°18' E 008°30'1 1.1
2014-Nov-21 05:31N 44°19' E 008°30'1 0.3
2014-Nov-21 03:12N 44°18' E 008°29'0 0.0
2014-Nov-21 02:24N 44°18' E 008°29'0 0.0
2014-Nov-21 01:24N 44°18' E 008°29'0 0.0
2014-Nov-21 00:30N 44°18' E 008°29'0 0.0
2014-Nov-20 19:24N 44°18' E 008°29'0 0.0
2014-Nov-20 15:30N 44°18' E 008°29'0 0.0
2014-Nov-20 11:30N 44°18' E 008°29'0 0.0
2014-Nov-20 07:30N 44°18' E 008°29'0 0.0
2014-Nov-20 03:33N 44°18' E 008°29'0 0.0
2014-Nov-20 02:30N 44°18' E 008°29'0 0.0
2014-Nov-20 01:24N 44°18' E 008°29'0 0.0
2014-Nov-20 00:27N 44°18' E 008°29'0 0.0
2014-Nov-19 23:33N 44°18' E 008°29'0 0.0
2014-Nov-19 20:06N 44°18' E 008°29'0 0.0
2014-Nov-19 19:30N 44°18' E 008°29'0 0.0
2014-Nov-19 15:33N 44°18' E 008°29'0 0.0
2014-Nov-19 14:30N 44°18' E 008°29'0 0.0
2014-Nov-19 11:18N 44°18' E 008°29'0 0.0
2014-Nov-19 08:06N 44°18' E 008°29'0 0.0
2014-Nov-19 07:33N 44°18' E 008°29'0 0.0
2014-Nov-19 04:18N 44°18' E 008°29'0 0.0
2014-Nov-19 03:33N 44°18' E 008°29'0 0.0
2014-Nov-19 02:33N 44°18' E 008°29'0 0.0
2014-Nov-19 01:33N 44°18' E 008°29'0 0.0
2014-Nov-19 00:27N 44°18' E 008°29'0 0.0
2014-Nov-18 23:30N 44°18' E 008°29'0 0.0
2014-Nov-18 19:33N 44°18' E 008°29'0 0.0
2014-Nov-18 16:18N 44°18' E 008°29'0 0.0
2014-Nov-18 15:30N 44°18' E 008°29'0 0.0
2014-Nov-18 03:30N 44°18' E 008°29'0 0.0
2014-Nov-18 02:30N 44°18' E 008°29'0 0.0
2014-Nov-18 01:30N 44°18' E 008°29'0 0.0
2014-Nov-18 00:30N 44°18' E 008°29'0 0.0
2014-Nov-17 23:30N 44°18' E 008°29'0 0.0
2014-Nov-17 15:27N 44°18' E 008°29'0 0.0
2014-Nov-17 11:21N 44°18' E 008°29'1 0.3
2014-Nov-17 08:29N 44°19' E 008°30'1 0.8
2014-Nov-17 07:31N 44°18' E 008°29'1 0.4
2014-Nov-17 05:18N 44°19' E 008°30'1 0.9
2014-Nov-17 04:24N 44°18' E 008°29'0 0.0
2014-Nov-17 03:33N 44°18' E 008°29'0 0.0
2014-Nov-17 02:30N 44°18' E 008°29'0 0.0
2014-Nov-17 01:30N 44°18' E 008°29'0 0.0
2014-Nov-17 00:27N 44°18' E 008°29'0 0.0
2014-Nov-16 10:21N 44°18' E 008°29'0 0.0
2014-Nov-16 09:33N 44°18' E 008°29'0 0.0
2014-Nov-16 08:18N 44°18' E 008°29'0 0.0
2014-Nov-16 03:33N 44°18' E 008°29'0 0.0
2014-Nov-16 02:33N 44°18' E 008°29'0 0.0
2014-Nov-16 01:15N 44°18' E 008°29'0 0.0
2014-Nov-15 19:27N 44°18' E 008°29'0 0.0
2014-Nov-15 15:30N 44°18' E 008°29'0 0.0
2014-Nov-15 11:27N 44°18' E 008°29'0 0.0
2014-Nov-15 07:12N 44°18' E 008°29'0 0.0
2014-Nov-15 03:33N 44°18' E 008°29'0 0.0
2014-Nov-15 02:33N 44°18' E 008°29'0 0.0
2014-Nov-15 00:30N 44°18' E 008°29'0 0.0
2014-Nov-14 15:30N 44°18' E 008°29'0 0.0
2014-Nov-14 11:24N 44°18' E 008°29'0 0.0
2014-Nov-14 08:06N 44°18' E 008°29'0 0.0
2014-Nov-14 07:30N 44°18' E 008°29'1 0.4
2014-Nov-14 05:26N 44°19' E 008°30'1 0.6
2014-Nov-14 04:05N 44°18' E 008°29'0 0.0
2014-Nov-14 03:26N 44°18' E 008°29'0 0.0
2014-Nov-14 02:20N 44°18' E 008°29'0 0.0
2014-Nov-14 01:26N 44°18' E 008°29'0 0.0
2014-Nov-14 00:32N 44°18' E 008°29'0 0.0
2014-Nov-13 23:26N 44°18' E 008°29'0 0.0
2014-Nov-13 19:32N 44°18' E 008°29'0 0.0
2014-Nov-13 03:29N 44°18' E 008°29'0 0.0
2014-Nov-13 02:26N 44°18' E 008°29'0 0.0
2014-Nov-13 01:29N 44°18' E 008°29'0 0.0
2014-Nov-13 00:26N 44°18' E 008°29'0 0.0
2014-Nov-12 19:32N 44°18' E 008°29'0 0.0
2014-Nov-12 18:32N 44°18' E 008°29'  

Dump ship's entire track history